createdAt,value
2019-02-05T00:01:41.276Z,8.65
2019-02-05T00:06:44.056Z,8.63
2019-02-05T00:11:46.896Z,8.67
2019-02-05T00:16:49.576Z,8.79
2019-02-05T00:21:52.368Z,8.99
2019-02-05T00:26:55.177Z,9.11
2019-02-05T00:31:57.996Z,8.96
2019-02-05T00:37:00.797Z,8.86
2019-02-05T00:42:03.776Z,8.84
2019-02-05T00:47:06.619Z,8.84
2019-02-05T00:52:09.383Z,8.82
2019-02-05T00:57:12.003Z,8.73
2019-02-05T01:02:14.957Z,8.71
2019-02-05T01:07:17.779Z,8.74
2019-02-05T01:12:21.579Z,8.80
2019-02-05T01:17:24.288Z,8.76
2019-02-05T01:22:27.073Z,8.63
2019-02-05T01:27:29.614Z,8.63
2019-02-05T01:32:32.199Z,8.69
2019-02-05T01:37:34.714Z,8.74
2019-02-05T01:42:37.408Z,8.75
2019-02-05T01:47:40.285Z,8.75
2019-02-05T01:52:43.035Z,8.75
2019-02-05T01:57:46.117Z,8.75
2019-02-05T02:02:49.228Z,8.79
2019-02-05T02:07:52.094Z,8.69
2019-02-05T02:12:55.363Z,8.74
2019-02-05T02:17:58.178Z,8.69
2019-02-05T02:23:01.258Z,8.69
2019-02-05T02:28:04.400Z,8.62
2019-02-05T02:33:07.469Z,8.61
2019-02-05T02:38:10.655Z,8.68
2019-02-05T02:43:13.296Z,8.66
2019-02-05T02:48:16.024Z,8.72
2019-02-05T02:53:18.711Z,8.78
2019-02-05T02:58:21.541Z,8.80
2019-02-05T03:03:24.685Z,8.82
2019-02-05T03:08:27.476Z,8.87
2019-02-05T03:13:30.473Z,8.91
2019-02-05T03:18:33.184Z,8.95
2019-02-05T03:23:35.977Z,9.00
2019-02-05T03:28:38.689Z,9.03
2019-02-05T03:33:41.342Z,8.98
2019-02-05T03:38:44.004Z,8.96
2019-02-05T03:43:46.755Z,8.88
2019-02-05T03:48:50.412Z,8.84
2019-02-05T03:54:02.440Z,8.84
2019-02-05T03:59:17.403Z,8.89
2019-02-05T04:04:38.188Z,8.96
2019-02-05T04:09:58.232Z,9.02
2019-02-05T04:15:16.328Z,9.07
2019-02-05T04:20:35.285Z,9.12
2019-02-05T04:25:50.797Z,9.17
2019-02-05T04:31:08.317Z,9.19
2019-02-05T04:36:29.253Z,9.27
2019-02-05T04:41:50.260Z,9.32
2019-02-05T04:47:07.433Z,9.31
2019-02-05T04:52:22.272Z,9.39
2019-02-05T04:57:40.335Z,9.42
2019-02-05T05:02:58.163Z,9.44
2019-02-05T05:08:14.368Z,9.45
2019-02-05T05:13:17.086Z,9.47
2019-02-05T05:18:19.811Z,9.51
2019-02-05T05:23:22.924Z,9.55
2019-02-05T05:28:25.783Z,9.54
2019-02-05T05:33:28.836Z,9.62
2019-02-05T05:38:31.701Z,9.63
2019-02-05T05:43:34.457Z,9.62
2019-02-05T05:48:37.293Z,9.65
2019-02-05T05:53:40.033Z,9.69
2019-02-05T05:58:42.751Z,9.69
2019-02-05T06:03:45.524Z,9.72
2019-02-05T06:08:48.176Z,9.72
2019-02-05T06:13:51.222Z,9.75
2019-02-05T06:18:54.114Z,9.80
2019-02-05T06:23:57.036Z,9.83
2019-02-05T06:28:59.673Z,9.86
2019-02-05T06:34:02.807Z,9.87
2019-02-05T06:39:08.599Z,9.91
2019-02-05T06:44:11.503Z,9.94
2019-02-05T06:49:14.328Z,9.97
2019-02-05T06:54:17.578Z,10.00
2019-02-05T06:59:20.239Z,10.06
2019-02-05T07:04:22.913Z,10.13
2019-02-05T07:09:25.679Z,10.19
2019-02-05T07:14:28.555Z,10.27
2019-02-05T07:19:31.687Z,10.35
2019-02-05T07:24:34.722Z,10.44
2019-02-05T07:29:37.613Z,10.49
2019-02-05T07:34:40.610Z,10.56
2019-02-05T07:39:43.408Z,10.60
2019-02-05T07:44:46.353Z,10.69
2019-02-05T07:49:49.403Z,10.76
2019-02-05T07:54:52.122Z,10.80
2019-02-05T07:59:54.776Z,10.84
2019-02-05T08:05:00.721Z,10.86
2019-02-05T08:10:05.081Z,10.88
2019-02-05T08:15:12.640Z,10.95
2019-02-05T08:20:15.942Z,10.97
2019-02-05T08:25:18.697Z,11.01
2019-02-05T08:30:24.473Z,11.05
2019-02-05T08:35:27.233Z,11.06
2019-02-05T08:40:30.094Z,11.08
2019-02-05T08:45:33.523Z,11.08
2019-02-05T08:50:36.595Z,11.13
2019-02-05T08:55:39.257Z,11.13
2019-02-05T09:00:42.804Z,11.18
2019-02-05T09:05:45.506Z,11.25
2019-02-05T09:15:58.216Z,11.29
2019-02-05T09:21:01.782Z,11.32
2019-02-05T09:26:04.541Z,11.33
2019-02-05T09:31:07.316Z,11.32
2019-02-05T09:36:10.150Z,11.32
2019-02-05T09:41:13.393Z,11.33
2019-02-05T09:46:16.087Z,11.34
2019-02-05T09:51:18.911Z,11.39
2019-02-05T09:56:21.719Z,11.43
2019-02-05T10:01:24.473Z,11.50
2019-02-05T10:06:27.272Z,11.56
2019-02-05T10:11:30.332Z,11.58
2019-02-05T10:16:33.194Z,11.62
2019-02-05T10:21:36.172Z,11.55
2019-02-05T10:26:38.915Z,11.56
2019-02-05T10:31:41.852Z,11.51
2019-02-05T10:36:45.014Z,11.48
2019-02-05T10:41:47.814Z,11.40
2019-02-05T10:46:52.934Z,11.40
2019-02-05T10:51:55.894Z,11.48
2019-02-05T10:56:59.015Z,11.48
2019-02-05T11:02:01.934Z,11.53
2019-02-05T11:07:05.432Z,11.52
2019-02-05T11:12:10.904Z,11.51
2019-02-05T11:17:14.017Z,11.56
2019-02-05T11:22:16.867Z,11.58
2019-02-05T11:27:19.530Z,11.60
2019-02-05T11:32:22.512Z,11.75
2019-02-05T11:37:25.427Z,11.75
2019-02-05T11:42:28.230Z,11.80
2019-02-05T11:47:31.059Z,11.99
2019-02-05T11:52:33.817Z,12.07
2019-02-05T11:57:36.624Z,11.97
2019-02-05T12:02:39.497Z,11.89
2019-02-05T12:07:42.303Z,11.82
2019-02-05T12:12:45.210Z,11.95
2019-02-05T12:17:47.912Z,12.02
2019-02-05T12:22:51.713Z,12.09
2019-02-05T12:27:54.740Z,12.06
2019-02-05T12:32:58.088Z,12.10
2019-02-05T12:38:01.177Z,11.96
2019-02-05T12:43:04.943Z,11.97
2019-02-05T12:48:08.074Z,11.89
2019-02-05T12:53:10.992Z,11.84
2019-02-05T12:58:13.732Z,11.82
2019-02-05T13:03:16.990Z,11.76
2019-02-05T13:08:20.284Z,11.70
2019-02-05T13:13:23.183Z,11.73
2019-02-05T13:18:26.137Z,11.78
2019-02-05T13:23:29.242Z,11.72
2019-02-05T13:28:32.029Z,11.70
2019-02-05T13:33:35.453Z,11.69
2019-02-05T13:38:38.184Z,11.71
2019-02-05T13:43:40.938Z,11.72
2019-02-05T13:48:43.739Z,11.71
2019-02-05T13:53:46.442Z,11.70
2019-02-05T13:58:49.838Z,11.72
2019-02-05T14:03:53.370Z,11.73
2019-02-05T14:08:56.557Z,11.75
2019-02-05T14:13:59.265Z,11.75
2019-02-05T14:19:01.868Z,11.79
2019-02-05T14:24:05.510Z,11.82
2019-02-05T14:29:08.385Z,11.79
2019-02-05T14:34:11.077Z,11.71
2019-02-05T14:39:13.724Z,11.71
2019-02-05T14:44:16.727Z,11.67
2019-02-05T14:49:19.687Z,11.60
2019-02-05T14:54:22.266Z,11.62
2019-02-05T14:59:24.995Z,11.57
2019-02-05T15:04:27.768Z,11.57
2019-02-05T15:09:30.563Z,11.59
2019-02-05T15:14:33.162Z,11.57
2019-02-05T15:19:35.931Z,11.54
2019-02-05T15:24:41.014Z,11.53
2019-02-05T15:29:44.057Z,11.56
2019-02-05T15:34:46.799Z,11.49
2019-02-05T15:39:49.401Z,11.47
2019-02-05T15:44:52.066Z,11.44
2019-02-05T15:50:05.614Z,11.43
2019-02-05T15:54:59.295Z,11.41
2019-02-05T16:00:02.350Z,11.42
2019-02-05T16:05:06.749Z,11.41
2019-02-05T16:10:12.561Z,11.40
2019-02-05T16:15:15.536Z,11.37
2019-02-05T16:20:18.638Z,11.37
2019-02-05T16:25:21.458Z,11.36
2019-02-05T16:30:24.398Z,11.35
2019-02-05T16:35:27.295Z,11.32
2019-02-05T16:40:30.594Z,11.33
2019-02-05T16:45:33.558Z,11.33
2019-02-05T16:50:39.105Z,11.33
2019-02-05T16:55:42.198Z,11.33
2019-02-05T17:00:44.838Z,11.37
2019-02-05T17:05:47.737Z,11.36
2019-02-05T17:10:50.568Z,11.41
2019-02-05T17:15:53.477Z,11.40
2019-02-05T17:20:56.275Z,11.39
2019-02-05T17:25:59.056Z,11.39
2019-02-05T17:31:01.836Z,11.39
2019-02-05T17:36:05.081Z,11.41
2019-02-05T17:41:08.016Z,11.42
2019-02-05T17:46:10.939Z,11.42
2019-02-05T17:51:13.708Z,11.42
2019-02-05T17:56:16.636Z,11.46
2019-02-05T18:01:20.496Z,11.48
2019-02-05T18:06:23.465Z,11.49
2019-02-05T18:11:26.318Z,11.50
2019-02-05T18:16:29.164Z,11.50
2019-02-05T18:21:32.176Z,11.49
2019-02-05T18:26:35.798Z,11.47
2019-02-05T18:31:38.635Z,11.46
2019-02-05T18:36:41.518Z,11.46
2019-02-05T18:41:44.179Z,11.43
2019-02-05T18:46:46.876Z,11.43
2019-02-05T18:51:49.786Z,11.37
2019-02-05T18:56:52.516Z,11.37
2019-02-05T19:01:55.162Z,11.35
2019-02-05T19:06:57.958Z,11.35
2019-02-05T19:12:04.398Z,11.36
2019-02-05T19:17:05.676Z,11.36
2019-02-05T19:22:08.456Z,11.35
2019-02-05T19:27:11.255Z,11.31
2019-02-05T19:32:16.345Z,11.28
2019-02-05T19:37:19.301Z,11.26
2019-02-05T19:42:22.055Z,11.34
2019-02-05T19:47:29.510Z,11.29
2019-02-05T19:52:32.477Z,11.30
2019-02-05T19:57:35.395Z,11.22
2019-02-05T20:02:38.484Z,11.09
2019-02-05T20:07:41.299Z,10.66
2019-02-05T20:12:44.715Z,10.39
2019-02-05T20:17:47.576Z,10.32
2019-02-05T20:22:50.340Z,10.34
2019-02-05T20:27:53.137Z,10.29
2019-02-05T20:32:55.957Z,10.26
2019-02-05T20:37:58.657Z,10.27
2019-02-05T20:43:01.639Z,10.32
2019-02-05T20:48:05.342Z,10.34
2019-02-05T20:53:14.064Z,10.29
2019-02-05T20:58:14.482Z,10.36
2019-02-05T21:03:17.475Z,10.43
2019-02-05T21:08:20.275Z,10.47
2019-02-05T21:13:23.021Z,10.49
2019-02-05T21:18:25.956Z,10.55
2019-02-05T21:23:28.805Z,10.53
2019-02-05T21:28:31.675Z,10.49
2019-02-05T21:33:34.541Z,10.47
2019-02-05T21:38:37.416Z,10.44
2019-02-05T21:43:40.161Z,10.38
2019-02-05T21:48:43.154Z,10.39
2019-02-05T21:53:46.123Z,10.35
2019-02-05T21:58:49.180Z,10.39
2019-02-05T22:03:52.134Z,10.47
2019-02-05T22:08:55.106Z,10.49
2019-02-05T22:13:57.999Z,10.39
2019-02-05T22:19:00.855Z,10.30
2019-02-05T22:24:04.298Z,10.31
2019-02-05T22:29:07.235Z,10.35
2019-02-05T22:34:10.015Z,10.39
2019-02-05T22:39:12.958Z,10.25
2019-02-05T22:44:16.017Z,10.31
2019-02-05T22:49:19.215Z,10.34
2019-02-05T22:54:22.418Z,10.29
2019-02-05T22:59:25.255Z,10.17
2019-02-05T23:04:50.137Z,10.03
2019-02-05T23:09:56.597Z,10.05
2019-02-05T23:15:06.113Z,10.07
2019-02-05T23:20:12.410Z,10.16
2019-02-05T23:25:15.096Z,10.29
2019-02-05T23:30:23.955Z,10.40
2019-02-05T23:35:26.545Z,10.46
2019-02-05T23:40:28.991Z,10.57
2019-02-05T23:45:31.464Z,10.58
2019-02-05T23:50:33.941Z,10.54
2019-02-05T23:55:36.405Z,10.31
